sensor_id;sensor_type;location;lat;lon;timestamp;P1;durP1;ratioP1;P2;durP2;ratioP2
58567;SDS011;44354;46.192;-1.076;2023-04-25T00:01:04;4.77;;;4.57;;
58567;SDS011;44354;46.192;-1.076;2023-04-25T00:03:31;4.55;;;4.35;;
58567;SDS011;44354;46.192;-1.076;2023-04-25T00:05:58;4.10;;;3.90;;
58567;SDS011;44354;46.192;-1.076;2023-04-25T00:08:27;3.85;;;3.65;;
58567;SDS011;44354;46.192;-1.076;2023-04-25T00:10:53;4.60;;;4.40;;
58567;SDS011;44354;46.192;-1.076;2023-04-25T00:13:19;4.78;;;4.57;;
58567;SDS011;44354;46.192;-1.076;2023-04-25T00:15:46;4.60;;;4.40;;
58567;SDS011;44354;46.192;-1.076;2023-04-25T00:18:13;4.15;;;3.95;;
58567;SDS011;44354;46.192;-1.076;2023-04-25T00:20:39;4.88;;;4.68;;
58567;SDS011;44354;46.192;-1.076;2023-04-25T00:23:05;4.70;;;4.50;;
58567;SDS011;44354;46.192;-1.076;2023-04-25T00:25:31;4.93;;;4.72;;
58567;SDS011;44354;46.192;-1.076;2023-04-25T00:27:56;3.87;;;3.67;;
58567;SDS011;44354;46.192;-1.076;2023-04-25T00:30:22;3.97;;;3.78;;
58567;SDS011;44354;46.192;-1.076;2023-04-25T00:32:48;4.10;;;3.90;;
58567;SDS011;44354;46.192;-1.076;2023-04-25T00:35:14;4.23;;;4.03;;
58567;SDS011;44354;46.192;-1.076;2023-04-25T00:37:39;4.07;;;3.88;;
58567;SDS011;44354;46.192;-1.076;2023-04-25T00:40:05;4.40;;;4.20;;
58567;SDS011;44354;46.192;-1.076;2023-04-25T00:42:31;4.28;;;4.07;;
58567;SDS011;44354;46.192;-1.076;2023-04-25T00:44:58;4.30;;;4.10;;
58567;SDS011;44354;46.192;-1.076;2023-04-25T00:47:25;3.92;;;3.72;;
58567;SDS011;44354;46.192;-1.076;2023-04-25T00:49:50;3.80;;;3.60;;
58567;SDS011;44354;46.192;-1.076;2023-04-25T00:52:18;4.10;;;3.90;;
58567;SDS011;44354;46.192;-1.076;2023-04-25T00:54:44;3.77;;;3.57;;
58567;SDS011;44354;46.192;-1.076;2023-04-25T00:57:10;3.87;;;3.67;;
58567;SDS011;44354;46.192;-1.076;2023-04-25T00:59:36;5.18;;;4.97;;
58567;SDS011;44354;46.192;-1.076;2023-04-25T01:02:03;5.10;;;4.90;;
58567;SDS011;44354;46.192;-1.076;2023-04-25T01:04:29;5.07;;;4.88;;
58567;SDS011;44354;46.192;-1.076;2023-04-25T01:06:55;4.53;;;4.33;;
58567;SDS011;44354;46.192;-1.076;2023-04-25T01:09:22;3.90;;;3.70;;
58567;SDS011;44354;46.192;-1.076;2023-04-25T01:11:49;4.97;;;4.77;;
58567;SDS011;44354;46.192;-1.076;2023-04-25T01:14:14;4.30;;;4.10;;
58567;SDS011;44354;46.192;-1.076;2023-04-25T01:16:41;5.40;;;5.20;;
58567;SDS011;44354;46.192;-1.076;2023-04-25T01:19:08;4.63;;;4.43;;
58567;SDS011;44354;46.192;-1.076;2023-04-25T01:21:38;4.95;;;4.75;;
58567;SDS011;44354;46.192;-1.076;2023-04-25T01:24:05;5.28;;;5.07;;
58567;SDS011;44354;46.192;-1.076;2023-04-25T01:26:31;5.25;;;5.05;;
58567;SDS011;44354;46.192;-1.076;2023-04-25T01:28:57;5.88;;;5.57;;
58567;SDS011;44354;46.192;-1.076;2023-04-25T01:31:23;6.70;;;6.40;;
58567;SDS011;44354;46.192;-1.076;2023-04-25T01:33:50;7.15;;;6.85;;
58567;SDS011;44354;46.192;-1.076;2023-04-25T01:36:16;6.33;;;6.03;;
58567;SDS011;44354;46.192;-1.076;2023-04-25T01:38:43;6.80;;;6.50;;
58567;SDS011;44354;46.192;-1.076;2023-04-25T01:41:09;5.72;;;5.43;;
58567;SDS011;44354;46.192;-1.076;2023-04-25T01:43:35;5.90;;;5.60;;
58567;SDS011;44354;46.192;-1.076;2023-04-25T01:46:00;4.70;;;4.50;;
58567;SDS011;44354;46.192;-1.076;2023-04-25T01:48:26;5.10;;;4.90;;
58567;SDS011;44354;46.192;-1.076;2023-04-25T01:50:52;4.72;;;4.53;;
58567;SDS011;44354;46.192;-1.076;2023-04-25T01:53:17;4.57;;;4.37;;
58567;SDS011;44354;46.192;-1.076;2023-04-25T01:55:43;5.60;;;5.30;;
58567;SDS011;44354;46.192;-1.076;2023-04-25T01:58:09;4.47;;;4.28;;
58567;SDS011;44354;46.192;-1.076;2023-04-25T02:00:37;4.20;;;4.00;;
58567;SDS011;44354;46.192;-1.076;2023-04-25T02:03:04;5.07;;;4.88;;
58567;SDS011;44354;46.192;-1.076;2023-04-25T02:05:36;4.85;;;4.65;;
58567;SDS011;44354;46.192;-1.076;2023-04-25T02:08:04;4.40;;;4.20;;
58567;SDS011;44354;46.192;-1.076;2023-04-25T02:10:30;4.65;;;4.45;;
58567;SDS011;44354;46.192;-1.076;2023-04-25T02:12:57;5.05;;;4.85;;
58567;SDS011;44354;46.192;-1.076;2023-04-25T02:15:23;4.63;;;4.43;;
58567;SDS011;44354;46.192;-1.076;2023-04-25T02:17:48;4.93;;;4.72;;
58567;SDS011;44354;46.192;-1.076;2023-04-25T02:20:14;5.10;;;4.90;;
58567;SDS011;44354;46.192;-1.076;2023-04-25T02:22:41;4.65;;;4.45;;
58567;SDS011;44354;46.192;-1.076;2023-04-25T02:25:08;4.22;;;4.03;;
58567;SDS011;44354;46.192;-1.076;2023-04-25T02:27:35;5.78;;;5.47;;
58567;SDS011;44354;46.192;-1.076;2023-04-25T02:30:00;4.93;;;4.73;;
58567;SDS011;44354;46.192;-1.076;2023-04-25T02:32:26;5.22;;;5.03;;
58567;SDS011;44354;46.192;-1.076;2023-04-25T02:34:52;5.30;;;5.10;;
58567;SDS011;44354;46.192;-1.076;2023-04-25T02:37:18;5.35;;;5.15;;
58567;SDS011;44354;46.192;-1.076;2023-04-25T02:39:44;4.88;;;4.68;;
58567;SDS011;44354;46.192;-1.076;2023-04-25T02:42:10;4.83;;;4.63;;
58567;SDS011;44354;46.192;-1.076;2023-04-25T02:44:36;4.80;;;4.60;;
58567;SDS011;44354;46.192;-1.076;2023-04-25T02:47:01;4.70;;;4.50;;
58567;SDS011;44354;46.192;-1.076;2023-04-25T02:49:27;4.60;;;4.40;;
58567;SDS011;44354;46.192;-1.076;2023-04-25T02:51:52;5.18;;;4.97;;
58567;SDS011;44354;46.192;-1.076;2023-04-25T02:54:18;5.90;;;5.60;;
58567;SDS011;44354;46.192;-1.076;2023-04-25T02:56:44;5.38;;;5.18;;
58567;SDS011;44354;46.192;-1.076;2023-04-25T02:59:09;5.67;;;5.37;;
58567;SDS011;44354;46.192;-1.076;2023-04-25T03:01:35;5.63;;;5.38;;
58567;SDS011;44354;46.192;-1.076;2023-04-25T03:04:01;6.13;;;5.83;;
58567;SDS011;44354;46.192;-1.076;2023-04-25T03:06:26;6.27;;;5.97;;
58567;SDS011;44354;46.192;-1.076;2023-04-25T03:08:52;5.80;;;5.50;;
58567;SDS011;44354;46.192;-1.076;2023-04-25T03:11:18;5.40;;;5.20;;
58567;SDS011;44354;46.192;-1.076;2023-04-25T03:13:45;5.15;;;4.95;;
58567;SDS011;44354;46.192;-1.076;2023-04-25T03:16:11;5.82;;;5.53;;
58567;SDS011;44354;46.192;-1.076;2023-04-25T03:18:36;6.22;;;5.93;;
58567;SDS011;44354;46.192;-1.076;2023-04-25T03:21:02;6.17;;;5.87;;
58567;SDS011;44354;46.192;-1.076;2023-04-25T03:23:28;7.30;;;7.00;;
58567;SDS011;44354;46.192;-1.076;2023-04-25T03:25:53;7.22;;;6.93;;
58567;SDS011;44354;46.192;-1.076;2023-04-25T03:28:19;7.30;;;7.00;;
58567;SDS011;44354;46.192;-1.076;2023-04-25T03:30:45;6.88;;;6.57;;
58567;SDS011;44354;46.192;-1.076;2023-04-25T03:33:11;6.90;;;6.60;;
58567;SDS011;44354;46.192;-1.076;2023-04-25T03:35:36;8.10;;;7.70;;
58567;SDS011;44354;46.192;-1.076;2023-04-25T03:38:02;6.10;;;5.80;;
58567;SDS011;44354;46.192;-1.076;2023-04-25T03:40:28;6.40;;;6.10;;
58567;SDS011;44354;46.192;-1.076;2023-04-25T03:42:53;6.00;;;5.70;;
58567;SDS011;44354;46.192;-1.076;2023-04-25T03:45:19;5.67;;;5.40;;
58567;SDS011;44354;46.192;-1.076;2023-04-25T03:47:45;5.45;;;5.22;;
58567;SDS011;44354;46.192;-1.076;2023-04-25T03:50:10;6.70;;;6.40;;
58567;SDS011;44354;46.192;-1.076;2023-04-25T03:52:36;6.90;;;6.60;;
58567;SDS011;44354;46.192;-1.076;2023-04-25T03:55:02;8.60;;;8.20;;
58567;SDS011;44354;46.192;-1.076;2023-04-25T03:57:29;9.48;;;8.98;;
58567;SDS011;44354;46.192;-1.076;2023-04-25T03:59:55;7.75;;;7.35;;
58567;SDS011;44354;46.192;-1.076;2023-04-25T04:02:20;10.07;;;9.57;;
58567;SDS011;44354;46.192;-1.076;2023-04-25T04:04:46;9.30;;;8.85;;
58567;SDS011;44354;46.192;-1.076;2023-04-25T04:07:12;9.00;;;8.60;;
58567;SDS011;44354;46.192;-1.076;2023-04-25T04:09:37;7.13;;;6.83;;
58567;SDS011;44354;46.192;-1.076;2023-04-25T04:12:03;8.15;;;7.75;;
58567;SDS011;44354;46.192;-1.076;2023-04-25T04:14:29;7.23;;;6.93;;
58567;SDS011;44354;46.192;-1.076;2023-04-25T04:16:55;6.97;;;6.67;;
58567;SDS011;44354;46.192;-1.076;2023-04-25T04:19:20;6.75;;;6.45;;
58567;SDS011;44354;46.192;-1.076;2023-04-25T04:21:46;6.57;;;6.27;;
58567;SDS011;44354;46.192;-1.076;2023-04-25T04:24:11;7.28;;;6.97;;
58567;SDS011;44354;46.192;-1.076;2023-04-25T04:26:37;9.17;;;8.77;;
58567;SDS011;44354;46.192;-1.076;2023-04-25T04:29:03;10.33;;;9.83;;
58567;SDS011;44354;46.192;-1.076;2023-04-25T04:31:29;9.93;;;9.43;;
58567;SDS011;44354;46.192;-1.076;2023-04-25T04:33:55;8.40;;;8.00;;
58567;SDS011;44354;46.192;-1.076;2023-04-25T04:36:20;8.73;;;8.32;;
58567;SDS011;44354;46.192;-1.076;2023-04-25T04:38:48;8.88;;;8.48;;
58567;SDS011;44354;46.192;-1.076;2023-04-25T04:41:14;6.60;;;6.30;;
58567;SDS011;44354;46.192;-1.076;2023-04-25T04:43:39;5.03;;;4.83;;
58567;SDS011;44354;46.192;-1.076;2023-04-25T04:46:05;5.20;;;5.00;;
58567;SDS011;44354;46.192;-1.076;2023-04-25T04:48:31;5.13;;;4.93;;
58567;SDS011;44354;46.192;-1.076;2023-04-25T04:50:59;5.03;;;4.82;;
58567;SDS011;44354;46.192;-1.076;2023-04-25T04:53:25;6.60;;;6.30;;
58567;SDS011;44354;46.192;-1.076;2023-04-25T04:55:51;6.30;;;6.00;;
58567;SDS011;44354;46.192;-1.076;2023-04-25T04:58:16;5.75;;;5.45;;
58567;SDS011;44354;46.192;-1.076;2023-04-25T05:00:42;5.17;;;4.97;;
58567;SDS011;44354;46.192;-1.076;2023-04-25T05:03:08;5.65;;;5.35;;
58567;SDS011;44354;46.192;-1.076;2023-04-25T05:05:33;4.95;;;4.75;;
58567;SDS011;44354;46.192;-1.076;2023-04-25T05:07:59;4.75;;;4.55;;
58567;SDS011;44354;46.192;-1.076;2023-04-25T05:10:25;4.50;;;4.30;;
58567;SDS011;44354;46.192;-1.076;2023-04-25T05:12:51;4.53;;;4.32;;
58567;SDS011;44354;46.192;-1.076;2023-04-25T05:15:16;4.53;;;4.33;;
58567;SDS011;44354;46.192;-1.076;2023-04-25T05:17:42;4.90;;;4.70;;
58567;SDS011;44354;46.192;-1.076;2023-04-25T05:20:08;4.90;;;4.70;;
58567;SDS011;44354;46.192;-1.076;2023-04-25T05:22:34;4.60;;;4.40;;
58567;SDS011;44354;46.192;-1.076;2023-04-25T05:25:00;4.65;;;4.45;;
58567;SDS011;44354;46.192;-1.076;2023-04-25T05:27:26;4.57;;;4.38;;
58567;SDS011;44354;46.192;-1.076;2023-04-25T05:29:52;4.10;;;3.90;;
58567;SDS011;44354;46.192;-1.076;2023-04-25T05:32:17;4.57;;;4.38;;
58567;SDS011;44354;46.192;-1.076;2023-04-25T05:34:43;4.60;;;4.40;;
58567;SDS011;44354;46.192;-1.076;2023-04-25T05:37:09;4.60;;;4.40;;
58567;SDS011;44354;46.192;-1.076;2023-04-25T05:39:35;5.37;;;5.17;;
58567;SDS011;44354;46.192;-1.076;2023-04-25T05:42:00;5.63;;;5.35;;
58567;SDS011;44354;46.192;-1.076;2023-04-25T05:44:27;5.85;;;5.55;;
58567;SDS011;44354;46.192;-1.076;2023-04-25T05:46:53;4.88;;;4.68;;
58567;SDS011;44354;46.192;-1.076;2023-04-25T05:49:18;4.47;;;4.28;;
58567;SDS011;44354;46.192;-1.076;2023-04-25T05:51:44;4.40;;;4.20;;
58567;SDS011;44354;46.192;-1.076;2023-04-25T05:54:10;4.22;;;4.03;;
58567;SDS011;44354;46.192;-1.076;2023-04-25T05:56:35;3.80;;;3.60;;
58567;SDS011;44354;46.192;-1.076;2023-04-25T05:59:01;3.33;;;3.23;;
58567;SDS011;44354;46.192;-1.076;2023-04-25T06:01:27;3.58;;;3.47;;
58567;SDS011;44354;46.192;-1.076;2023-04-25T06:03:52;4.30;;;4.10;;
58567;SDS011;44354;46.192;-1.076;2023-04-25T06:06:18;4.57;;;4.37;;
58567;SDS011;44354;46.192;-1.076;2023-04-25T06:08:44;4.15;;;3.95;;
58567;SDS011;44354;46.192;-1.076;2023-04-25T06:11:10;3.03;;;2.92;;
58567;SDS011;44354;46.192;-1.076;2023-04-25T06:13:36;3.95;;;3.75;;
58567;SDS011;44354;46.192;-1.076;2023-04-25T06:16:01;2.83;;;2.73;;
58567;SDS011;44354;46.192;-1.076;2023-04-25T06:18:27;3.38;;;3.28;;
58567;SDS011;44354;46.192;-1.076;2023-04-25T06:20:53;3.35;;;3.25;;
58567;SDS011;44354;46.192;-1.076;2023-04-25T06:23:18;3.17;;;3.07;;
58567;SDS011;44354;46.192;-1.076;2023-04-25T06:25:44;3.00;;;2.90;;
58567;SDS011;44354;46.192;-1.076;2023-04-25T06:28:10;3.55;;;3.45;;
58567;SDS011;44354;46.192;-1.076;2023-04-25T06:30:35;3.10;;;3.00;;
58567;SDS011;44354;46.192;-1.076;2023-04-25T06:33:01;2.95;;;2.85;;
58567;SDS011;44354;46.192;-1.076;2023-04-25T06:35:27;3.00;;;2.90;;
58567;SDS011;44354;46.192;-1.076;2023-04-25T06:37:52;3.25;;;3.15;;
58567;SDS011;44354;46.192;-1.076;2023-04-25T06:40:18;2.60;;;2.50;;
58567;SDS011;44354;46.192;-1.076;2023-04-25T06:42:44;2.65;;;2.55;;
58567;SDS011;44354;46.192;-1.076;2023-04-25T06:45:10;2.80;;;2.70;;
58567;SDS011;44354;46.192;-1.076;2023-04-25T06:47:36;2.58;;;2.47;;
58567;SDS011;44354;46.192;-1.076;2023-04-25T06:50:01;2.40;;;2.30;;
58567;SDS011;44354;46.192;-1.076;2023-04-25T06:52:27;2.73;;;2.63;;
58567;SDS011;44354;46.192;-1.076;2023-04-25T06:54:53;2.60;;;2.50;;
58567;SDS011;44354;46.192;-1.076;2023-04-25T06:57:18;2.45;;;2.35;;
58567;SDS011;44354;46.192;-1.076;2023-04-25T06:59:44;3.00;;;2.90;;
58567;SDS011;44354;46.192;-1.076;2023-04-25T07:02:10;2.00;;;1.90;;
58567;SDS011;44354;46.192;-1.076;2023-04-25T07:04:36;2.72;;;2.63;;
58567;SDS011;44354;46.192;-1.076;2023-04-25T07:07:01;2.50;;;2.40;;
58567;SDS011;44354;46.192;-1.076;2023-04-25T07:09:28;2.83;;;2.72;;
58567;SDS011;44354;46.192;-1.076;2023-04-25T07:11:54;2.75;;;2.65;;
58567;SDS011;44354;46.192;-1.076;2023-04-25T07:14:21;2.95;;;2.85;;
58567;SDS011;44354;46.192;-1.076;2023-04-25T07:16:47;2.40;;;2.30;;
58567;SDS011;44354;46.192;-1.076;2023-04-25T07:19:13;2.60;;;2.50;;
58567;SDS011;44354;46.192;-1.076;2023-04-25T07:21:39;2.77;;;2.67;;
58567;SDS011;44354;46.192;-1.076;2023-04-25T07:24:05;2.67;;;2.57;;
58567;SDS011;44354;46.192;-1.076;2023-04-25T07:26:31;2.10;;;2.00;;
58567;SDS011;44354;46.192;-1.076;2023-04-25T07:28:56;2.38;;;2.28;;
58567;SDS011;44354;46.192;-1.076;2023-04-25T07:31:22;2.60;;;2.50;;
58567;SDS011;44354;46.192;-1.076;2023-04-25T07:33:48;2.90;;;2.80;;
58567;SDS011;44354;46.192;-1.076;2023-04-25T07:36:14;3.30;;;3.20;;
58567;SDS011;44354;46.192;-1.076;2023-04-25T07:38:40;2.45;;;2.35;;
58567;SDS011;44354;46.192;-1.076;2023-04-25T07:41:06;2.40;;;2.30;;
58567;SDS011;44354;46.192;-1.076;2023-04-25T07:43:32;2.33;;;2.22;;
58567;SDS011;44354;46.192;-1.076;2023-04-25T07:45:58;2.10;;;2.00;;
58567;SDS011;44354;46.192;-1.076;2023-04-25T07:48:23;1.70;;;1.70;;
58567;SDS011;44354;46.192;-1.076;2023-04-25T07:50:49;2.30;;;2.20;;
58567;SDS011;44354;46.192;-1.076;2023-04-25T07:53:15;2.20;;;2.10;;
58567;SDS011;44354;46.192;-1.076;2023-04-25T07:55:42;1.15;;;1.15;;
58567;SDS011;44354;46.192;-1.076;2023-04-25T07:58:10;1.60;;;1.60;;
58567;SDS011;44354;46.192;-1.076;2023-04-25T08:00:36;1.30;;;1.30;;
58567;SDS011;44354;46.192;-1.076;2023-04-25T08:03:02;1.17;;;1.17;;
58567;SDS011;44354;46.192;-1.076;2023-04-25T08:05:28;1.42;;;1.42;;
58567;SDS011;44354;46.192;-1.076;2023-04-25T08:07:54;1.17;;;1.17;;
58567;SDS011;44354;46.192;-1.076;2023-04-25T08:10:21;1.50;;;1.50;;
58567;SDS011;44354;46.192;-1.076;2023-04-25T08:12:48;0.90;;;0.90;;
58567;SDS011;44354;46.192;-1.076;2023-04-25T08:15:13;1.05;;;1.05;;
58567;SDS011;44354;46.192;-1.076;2023-04-25T08:17:40;0.70;;;0.70;;
58567;SDS011;44354;46.192;-1.076;2023-04-25T08:20:06;1.30;;;1.30;;
58567;SDS011;44354;46.192;-1.076;2023-04-25T08:22:32;1.00;;;1.00;;
58567;SDS011;44354;46.192;-1.076;2023-04-25T08:24:57;1.07;;;1.07;;
58567;SDS011;44354;46.192;-1.076;2023-04-25T08:27:23;0.40;;;0.40;;
58567;SDS011;44354;46.192;-1.076;2023-04-25T08:29:49;0.60;;;0.60;;
58567;SDS011;44354;46.192;-1.076;2023-04-25T08:32:16;0.30;;;0.30;;
58567;SDS011;44354;46.192;-1.076;2023-04-25T08:34:41;0.20;;;0.20;;
58567;SDS011;44354;46.192;-1.076;2023-04-25T08:37:08;0.30;;;0.30;;
58567;SDS011;44354;46.192;-1.076;2023-04-25T08:39:35;0.30;;;0.30;;
58567;SDS011;44354;46.192;-1.076;2023-04-25T08:42:02;0.40;;;0.40;;
58567;SDS011;44354;46.192;-1.076;2023-04-25T08:44:31;0.20;;;0.20;;
58567;SDS011;44354;46.192;-1.076;2023-04-25T08:46:58;0.15;;;0.15;;
58567;SDS011;44354;46.192;-1.076;2023-04-25T08:49:24;0.20;;;0.20;;
58567;SDS011;44354;46.192;-1.076;2023-04-25T08:51:51;0.10;;;0.10;;
58567;SDS011;44354;46.192;-1.076;2023-04-25T08:54:18;0.10;;;0.10;;
58567;SDS011;44354;46.192;-1.076;2023-04-25T08:56:49;0.10;;;0.10;;
58567;SDS011;44354;46.192;-1.076;2023-04-25T08:59:15;0.10;;;0.10;;
58567;SDS011;44354;46.192;-1.076;2023-04-25T09:01:42;0.20;;;0.20;;
58567;SDS011;44354;46.192;-1.076;2023-04-25T09:04:08;0.22;;;0.22;;
58567;SDS011;44354;46.192;-1.076;2023-04-25T09:06:33;0.10;;;0.10;;
58567;SDS011;44354;46.192;-1.076;2023-04-25T09:09:01;0.00;;;0.00;;
58567;SDS011;44354;46.192;-1.076;2023-04-25T09:11:31;0.00;;;0.00;;
58567;SDS011;44354;46.192;-1.076;2023-04-25T09:14:10;0.00;;;0.00;;
58567;SDS011;44354;46.192;-1.076;2023-04-25T09:19:26;0.00;;;0.00;;
58567;SDS011;44354;46.192;-1.076;2023-04-25T09:22:03;0.00;;;0.00;;
58567;SDS011;44354;46.192;-1.076;2023-04-25T09:24:36;0.00;;;0.00;;
58567;SDS011;44354;46.192;-1.076;2023-04-25T09:27:13;0.00;;;0.00;;
58567;SDS011;44354;46.192;-1.076;2023-04-25T09:29:43;0.00;;;0.00;;
58567;SDS011;44354;46.192;-1.076;2023-04-25T09:32:18;0.00;;;0.00;;
58567;SDS011;44354;46.192;-1.076;2023-04-25T09:37:22;0.00;;;0.00;;
58567;SDS011;44354;46.192;-1.076;2023-04-25T09:39:53;0.00;;;0.00;;
58567;SDS011;44354;46.192;-1.076;2023-04-25T09:42:23;0.00;;;0.00;;
58567;SDS011;44354;46.192;-1.076;2023-04-25T09:44:54;0.00;;;0.00;;
58567;SDS011;44354;46.192;-1.076;2023-04-25T09:47:22;0.00;;;0.00;;
58567;SDS011;44354;46.192;-1.076;2023-04-25T09:49:49;0.00;;;0.00;;
58567;SDS011;44354;46.192;-1.076;2023-04-25T09:52:19;0.00;;;0.00;;
58567;SDS011;44354;46.192;-1.076;2023-04-25T09:54:46;0.00;;;0.00;;
58567;SDS011;44354;46.192;-1.076;2023-04-25T09:57:14;0.00;;;0.00;;
58567;SDS011;44354;46.192;-1.076;2023-04-25T09:59:47;0.00;;;0.00;;
58567;SDS011;44354;46.192;-1.076;2023-04-25T10:02:16;0.00;;;0.00;;
58567;SDS011;44354;46.192;-1.076;2023-04-25T10:04:45;0.00;;;0.00;;
58567;SDS011;44354;46.192;-1.076;2023-04-25T10:07:17;0.00;;;0.00;;
58567;SDS011;44354;46.192;-1.076;2023-04-25T10:09:44;0.00;;;0.00;;
58567;SDS011;44354;46.192;-1.076;2023-04-25T10:12:15;0.00;;;0.00;;
58567;SDS011;44354;46.192;-1.076;2023-04-25T10:14:41;0.00;;;0.00;;
58567;SDS011;44354;46.192;-1.076;2023-04-25T10:17:08;0.00;;;0.00;;
58567;SDS011;44354;46.192;-1.076;2023-04-25T10:19:35;0.00;;;0.00;;
58567;SDS011;44354;46.192;-1.076;2023-04-25T10:22:05;0.00;;;0.00;;
58567;SDS011;44354;46.192;-1.076;2023-04-25T10:24:35;0.00;;;0.00;;
58567;SDS011;44354;46.192;-1.076;2023-04-25T10:27:01;0.00;;;0.00;;
58567;SDS011;44354;46.192;-1.076;2023-04-25T10:29:27;0.00;;;0.00;;
58567;SDS011;44354;46.192;-1.076;2023-04-25T10:31:53;0.00;;;0.00;;
58567;SDS011;44354;46.192;-1.076;2023-04-25T10:34:23;0.00;;;0.00;;
58567;SDS011;44354;46.192;-1.076;2023-04-25T10:36:51;0.00;;;0.00;;
58567;SDS011;44354;46.192;-1.076;2023-04-25T10:39:22;0.00;;;0.00;;
58567;SDS011;44354;46.192;-1.076;2023-04-25T10:42:09;0.00;;;0.00;;
58567;SDS011;44354;46.192;-1.076;2023-04-25T10:44:36;0.00;;;0.00;;
58567;SDS011;44354;46.192;-1.076;2023-04-25T10:47:03;0.00;;;0.00;;
58567;SDS011;44354;46.192;-1.076;2023-04-25T10:49:35;0.00;;;0.00;;
58567;SDS011;44354;46.192;-1.076;2023-04-25T10:52:18;0.00;;;0.00;;
58567;SDS011;44354;46.192;-1.076;2023-04-25T10:54:55;0.00;;;0.00;;
58567;SDS011;44354;46.192;-1.076;2023-04-25T10:57:31;0.00;;;0.00;;
58567;SDS011;44354;46.192;-1.076;2023-04-25T10:59:59;0.00;;;0.00;;
58567;SDS011;44354;46.192;-1.076;2023-04-25T11:02:31;0.00;;;0.00;;
58567;SDS011;44354;46.192;-1.076;2023-04-25T11:04:56;0.00;;;0.00;;
58567;SDS011;44354;46.192;-1.076;2023-04-25T11:07:34;0.00;;;0.00;;
58567;SDS011;44354;46.192;-1.076;2023-04-25T11:10:14;0.00;;;0.00;;
58567;SDS011;44354;46.192;-1.076;2023-04-25T11:12:40;0.00;;;0.00;;
58567;SDS011;44354;46.192;-1.076;2023-04-25T11:15:06;0.00;;;0.00;;
58567;SDS011;44354;46.192;-1.076;2023-04-25T11:17:32;0.00;;;0.00;;
58567;SDS011;44354;46.192;-1.076;2023-04-25T11:19:59;0.00;;;0.00;;
58567;SDS011;44354;46.192;-1.076;2023-04-25T11:22:26;0.00;;;0.00;;
58567;SDS011;44354;46.192;-1.076;2023-04-25T11:24:52;0.00;;;0.00;;
58567;SDS011;44354;46.192;-1.076;2023-04-25T11:27:18;0.00;;;0.00;;
58567;SDS011;44354;46.192;-1.076;2023-04-25T11:29:44;0.00;;;0.00;;
58567;SDS011;44354;46.192;-1.076;2023-04-25T11:32:13;0.00;;;0.00;;
58567;SDS011;44354;46.192;-1.076;2023-04-25T11:34:42;0.00;;;0.00;;
58567;SDS011;44354;46.192;-1.076;2023-04-25T11:37:09;0.00;;;0.00;;
58567;SDS011;44354;46.192;-1.076;2023-04-25T11:39:37;0.00;;;0.00;;
58567;SDS011;44354;46.192;-1.076;2023-04-25T11:42:03;0.00;;;0.00;;
58567;SDS011;44354;46.192;-1.076;2023-04-25T11:44:30;0.00;;;0.00;;
58567;SDS011;44354;46.192;-1.076;2023-04-25T11:46:56;0.00;;;0.00;;
58567;SDS011;44354;46.192;-1.076;2023-04-25T11:49:22;0.00;;;0.00;;
58567;SDS011;44354;46.192;-1.076;2023-04-25T11:51:49;0.00;;;0.00;;
58567;SDS011;44354;46.192;-1.076;2023-04-25T11:54:15;0.00;;;0.00;;
58567;SDS011;44354;46.192;-1.076;2023-04-25T11:56:44;0.00;;;0.00;;
58567;SDS011;44354;46.192;-1.076;2023-04-25T11:59:10;0.00;;;0.00;;
58567;SDS011;44354;46.192;-1.076;2023-04-25T12:01:38;0.00;;;0.00;;
58567;SDS011;44354;46.192;-1.076;2023-04-25T12:04:13;0.00;;;0.00;;
58567;SDS011;44354;46.192;-1.076;2023-04-25T12:06:46;0.00;;;0.00;;
58567;SDS011;44354;46.192;-1.076;2023-04-25T12:09:13;0.00;;;0.00;;
58567;SDS011;44354;46.192;-1.076;2023-04-25T12:11:43;0.00;;;0.00;;
58567;SDS011;44354;46.192;-1.076;2023-04-25T12:14:11;0.00;;;0.00;;
58567;SDS011;44354;46.192;-1.076;2023-04-25T12:17:06;0.00;;;0.00;;
58567;SDS011;44354;46.192;-1.076;2023-04-25T12:19:36;0.00;;;0.00;;
58567;SDS011;44354;46.192;-1.076;2023-04-25T12:22:17;0.00;;;0.00;;
58567;SDS011;44354;46.192;-1.076;2023-04-25T12:24:45;0.00;;;0.00;;
58567;SDS011;44354;46.192;-1.076;2023-04-25T12:27:11;0.00;;;0.00;;
58567;SDS011;44354;46.192;-1.076;2023-04-25T12:30:04;0.00;;;0.00;;
58567;SDS011;44354;46.192;-1.076;2023-04-25T12:32:29;0.00;;;0.00;;
58567;SDS011;44354;46.192;-1.076;2023-04-25T12:34:55;0.00;;;0.00;;
58567;SDS011;44354;46.192;-1.076;2023-04-25T12:37:21;0.00;;;0.00;;
58567;SDS011;44354;46.192;-1.076;2023-04-25T12:39:47;0.00;;;0.00;;
58567;SDS011;44354;46.192;-1.076;2023-04-25T12:42:12;0.00;;;0.00;;
58567;SDS011;44354;46.192;-1.076;2023-04-25T12:44:38;0.00;;;0.00;;
58567;SDS011;44354;46.192;-1.076;2023-04-25T12:47:04;0.00;;;0.00;;
58567;SDS011;44354;46.192;-1.076;2023-04-25T12:49:30;0.00;;;0.00;;
58567;SDS011;44354;46.192;-1.076;2023-04-25T12:51:56;0.00;;;0.00;;
58567;SDS011;44354;46.192;-1.076;2023-04-25T12:54:22;0.00;;;0.00;;
58567;SDS011;44354;46.192;-1.076;2023-04-25T12:56:48;0.00;;;0.00;;
58567;SDS011;44354;46.192;-1.076;2023-04-25T12:59:15;0.00;;;0.00;;
58567;SDS011;44354;46.192;-1.076;2023-04-25T13:01:40;0.00;;;0.00;;
58567;SDS011;44354;46.192;-1.076;2023-04-25T13:04:06;0.00;;;0.00;;
58567;SDS011;44354;46.192;-1.076;2023-04-25T13:06:32;0.00;;;0.00;;
58567;SDS011;44354;46.192;-1.076;2023-04-25T13:08:57;0.00;;;0.00;;
58567;SDS011;44354;46.192;-1.076;2023-04-25T13:11:23;0.00;;;0.00;;
58567;SDS011;44354;46.192;-1.076;2023-04-25T13:13:48;0.00;;;0.00;;
58567;SDS011;44354;46.192;-1.076;2023-04-25T13:16:14;0.00;;;0.00;;
58567;SDS011;44354;46.192;-1.076;2023-04-25T13:18:40;0.00;;;0.00;;
58567;SDS011;44354;46.192;-1.076;2023-04-25T13:21:06;0.00;;;0.00;;
58567;SDS011;44354;46.192;-1.076;2023-04-25T13:23:33;0.00;;;0.00;;
58567;SDS011;44354;46.192;-1.076;2023-04-25T13:25:59;0.10;;;0.10;;
58567;SDS011;44354;46.192;-1.076;2023-04-25T13:28:26;0.05;;;0.05;;
58567;SDS011;44354;46.192;-1.076;2023-04-25T13:30:52;0.10;;;0.10;;
58567;SDS011;44354;46.192;-1.076;2023-04-25T13:33:18;0.10;;;0.10;;
58567;SDS011;44354;46.192;-1.076;2023-04-25T13:35:45;0.10;;;0.10;;
58567;SDS011;44354;46.192;-1.076;2023-04-25T13:38:14;0.10;;;0.10;;
58567;SDS011;44354;46.192;-1.076;2023-04-25T13:40:40;0.10;;;0.10;;
58567;SDS011;44354;46.192;-1.076;2023-04-25T13:43:06;0.10;;;0.10;;
58567;SDS011;44354;46.192;-1.076;2023-04-25T13:45:31;0.00;;;0.00;;
58567;SDS011;44354;46.192;-1.076;2023-04-25T13:47:57;0.00;;;0.00;;
58567;SDS011;44354;46.192;-1.076;2023-04-25T13:50:23;0.10;;;0.10;;
58567;SDS011;44354;46.192;-1.076;2023-04-25T13:52:49;0.10;;;0.10;;
58567;SDS011;44354;46.192;-1.076;2023-04-25T13:55:14;0.00;;;0.00;;
58567;SDS011;44354;46.192;-1.076;2023-04-25T13:57:40;0.10;;;0.10;;
58567;SDS011;44354;46.192;-1.076;2023-04-25T14:00:07;0.00;;;0.00;;
58567;SDS011;44354;46.192;-1.076;2023-04-25T14:02:36;0.10;;;0.10;;
58567;SDS011;44354;46.192;-1.076;2023-04-25T14:05:04;0.10;;;0.10;;
58567;SDS011;44354;46.192;-1.076;2023-04-25T14:07:33;0.00;;;0.00;;
58567;SDS011;44354;46.192;-1.076;2023-04-25T14:10:00;0.10;;;0.10;;
58567;SDS011;44354;46.192;-1.076;2023-04-25T14:12:26;0.07;;;0.07;;
58567;SDS011;44354;46.192;-1.076;2023-04-25T14:14:51;0.10;;;0.10;;
58567;SDS011;44354;46.192;-1.076;2023-04-25T14:17:18;0.00;;;0.00;;
58567;SDS011;44354;46.192;-1.076;2023-04-25T14:19:44;0.10;;;0.10;;
58567;SDS011;44354;46.192;-1.076;2023-04-25T14:22:12;0.30;;;0.30;;
58567;SDS011;44354;46.192;-1.076;2023-04-25T14:24:40;0.20;;;0.20;;
58567;SDS011;44354;46.192;-1.076;2023-04-25T14:27:05;0.20;;;0.20;;
58567;SDS011;44354;46.192;-1.076;2023-04-25T14:29:31;0.20;;;0.20;;
58567;SDS011;44354;46.192;-1.076;2023-04-25T14:31:57;0.20;;;0.20;;
58567;SDS011;44354;46.192;-1.076;2023-04-25T14:34:24;0.10;;;0.10;;
58567;SDS011;44354;46.192;-1.076;2023-04-25T14:36:50;0.10;;;0.10;;